Terminal Aerodrome Forecast
Issued by NWS Blacksburg, VA

Current Version | Previous Version | Text Only | Print | Product List | Glossary Off
Versions: 1 2 3 4 5 6 7 8 9 10 11 12 13 14 15 16 17 18 19 20 21 22 23 24 25 26 27 28 29 30 31 32 33 34 35 36 37 38 39 40 41 42

629
FTUS41 KRNK 251125
TAFBLF
TAF
KBLF 251125Z 2512/2612 12004KT P6SM SKC
     FM251700 VRB03KT P6SM SCT030
     FM252200 30005KT P6SM BKN040
     FM260500 16004KT P6SM BKN020=

USA.gov is the U.S. government's official web portal to all federal, state and local government web resources and services.